Grant City, Missouri
Current Conditions -  °F | °C
As of 5:53 AM on Wednesday 28 Jan 2015 (Local Time) from KLWD Reporting Station
Haze Haze  
Wind Chill: 21°   Ceiling: Unl
Heat Index: 29°   Visibility: 6mi
Dew Point: 27°   Wind: 8mph
Humidity: 92%   Direction: 110°ESE
Pressure: 29.98"   Gusts: NA
Location:  40.49°N, 94.41°W
Report Text: KLWD 281153Z AUTO 11007KT 6SM BR CLR M02/M03 A2998 RMK AO2 SLP163 T10171028 10006 21017 58021
Loading
Personal Weather Stations






























Interactive Weather Map New forecast layout! Learn more

10-Day Weather Forecast

Advertisements
Track Severe Weather on mobile